createdAt,value
2018-08-13T00:00:33.037Z,2.53
2018-08-13T00:03:01.155Z,3.07
2018-08-13T00:05:29.226Z,2.33
2018-08-13T00:07:57.984Z,2.80
2018-08-13T00:10:26.050Z,2.43
2018-08-13T00:12:54.144Z,2.70
2018-08-13T00:15:22.244Z,2.53
2018-08-13T00:17:50.376Z,2.97
2018-08-13T00:20:18.671Z,2.70
2018-08-13T00:22:46.757Z,2.43
2018-08-13T00:25:14.804Z,2.70
2018-08-13T00:27:42.888Z,2.50
2018-08-13T00:30:10.981Z,2.43
2018-08-13T00:32:39.061Z,2.80
2018-08-13T00:35:07.240Z,2.57
2018-08-13T00:37:35.306Z,2.60
2018-08-13T00:40:04.941Z,3.20
2018-08-13T00:42:33.020Z,3.23
2018-08-13T00:45:01.206Z,2.63
2018-08-13T00:47:29.686Z,2.50
2018-08-13T00:49:57.771Z,3.07
2018-08-13T00:52:26.352Z,2.90
2018-08-13T00:54:54.428Z,3.07
2018-08-13T00:57:22.665Z,3.30
2018-08-13T00:59:50.804Z,2.60
2018-08-13T01:02:18.881Z,3.17
2018-08-13T01:04:46.958Z,2.67
2018-08-13T01:07:15.383Z,2.80
2018-08-13T01:09:43.508Z,2.60
2018-08-13T01:12:11.691Z,2.60
2018-08-13T01:14:39.857Z,2.50
2018-08-13T01:17:08.302Z,2.70
2018-08-13T01:19:36.784Z,3.30
2018-08-13T01:22:04.960Z,3.00
2018-08-13T01:24:33.024Z,3.00
2018-08-13T01:27:01.154Z,3.00
2018-08-13T01:29:29.674Z,3.00
2018-08-13T01:31:57.805Z,2.50
2018-08-13T01:34:25.860Z,2.87
2018-08-13T01:36:54.287Z,3.00
2018-08-13T01:39:22.329Z,2.50
2018-08-13T01:41:50.396Z,3.50
2018-08-13T01:44:18.462Z,3.00
2018-08-13T01:46:46.622Z,2.73
2018-08-13T01:49:14.700Z,2.70
2018-08-13T01:51:43.117Z,2.70
2018-08-13T01:54:11.180Z,2.73
2018-08-13T01:56:39.251Z,2.30
2018-08-13T01:59:07.316Z,2.90
2018-08-13T02:01:35.538Z,2.90
2018-08-13T02:04:03.877Z,3.13
2018-08-13T02:06:31.964Z,2.90
2018-08-13T02:09:00.061Z,3.17
2018-08-13T02:11:28.603Z,2.87
2018-08-13T02:13:56.901Z,2.73
2018-08-13T02:16:24.973Z,3.10
2018-08-13T02:18:53.150Z,2.90
2018-08-13T02:21:21.205Z,2.70
2018-08-13T02:23:49.651Z,2.80
2018-08-13T02:26:17.719Z,2.87
2018-08-13T02:28:45.788Z,2.57
2018-08-13T02:31:13.912Z,2.93
2018-08-13T02:33:42.473Z,3.03
2018-08-13T02:36:10.635Z,2.80
2018-08-13T02:38:38.697Z,3.40
2018-08-13T02:41:06.815Z,2.60
2018-08-13T02:43:34.977Z,3.10
2018-08-13T02:46:03.081Z,3.20
2018-08-13T02:48:31.173Z,2.67
2018-08-13T02:50:59.245Z,2.83
2018-08-13T02:53:27.713Z,2.70
2018-08-13T02:55:55.816Z,2.70
2018-08-13T02:58:23.939Z,3.00
2018-08-13T03:00:52.028Z,2.90
2018-08-13T03:03:20.205Z,3.00
2018-08-13T03:05:48.622Z,2.80
2018-08-13T03:08:16.693Z,2.80
2018-08-13T03:10:44.766Z,2.70
2018-08-13T03:13:12.885Z,3.00
2018-08-13T03:15:41.072Z,2.97
2018-08-13T03:18:09.137Z,2.77
2018-08-13T03:20:37.198Z,3.07
2018-08-13T03:23:06.132Z,2.70
2018-08-13T03:25:34.241Z,2.57
2018-08-13T03:28:02.352Z,3.20
2018-08-13T03:30:30.404Z,2.90
2018-08-13T03:32:58.482Z,2.60
2018-08-13T03:35:26.966Z,3.20
2018-08-13T03:37:55.520Z,2.60
2018-08-13T03:40:23.644Z,2.80
2018-08-13T03:42:51.719Z,2.83
2018-08-13T03:45:19.860Z,2.83
2018-08-13T03:47:47.936Z,3.07
2018-08-13T03:50:16.118Z,3.00
2018-08-13T03:52:44.287Z,3.10
2018-08-13T03:55:12.659Z,3.10
2018-08-13T03:57:43.082Z,2.50
2018-08-13T04:00:15.566Z,3.00
2018-08-13T04:02:43.936Z,2.50
2018-08-13T04:05:12.661Z,2.73
2018-08-13T04:07:40.748Z,3.30
2018-08-13T04:10:10.607Z,2.70
2018-08-13T04:12:40.692Z,3.20
2018-08-13T04:15:10.236Z,3.07
2018-08-13T04:17:38.350Z,3.10
2018-08-13T04:20:07.732Z,2.70
2018-08-13T04:22:36.142Z,2.90
2018-08-13T04:25:04.576Z,3.27
2018-08-13T04:27:32.656Z,2.80
2018-08-13T04:30:00.724Z,3.03
2018-08-13T04:32:28.817Z,3.07
2018-08-13T04:34:56.907Z,2.93
2018-08-13T04:37:24.985Z,3.17
2018-08-13T04:39:53.036Z,3.20
2018-08-13T04:42:21.119Z,3.67
2018-08-13T04:44:49.988Z,3.50
2018-08-13T04:47:18.069Z,2.77
2018-08-13T04:49:46.139Z,2.90
2018-08-13T04:52:14.263Z,2.97
2018-08-13T04:54:42.605Z,3.13
2018-08-13T04:57:10.677Z,2.80
2018-08-13T04:59:38.753Z,3.10
2018-08-13T05:02:06.846Z,2.97
2018-08-13T05:04:34.917Z,3.33
2018-08-13T05:07:03.002Z,3.43
2018-08-13T05:09:31.074Z,2.90
2018-08-13T05:11:59.483Z,3.30
2018-08-13T05:14:27.589Z,3.67
2018-08-13T05:16:55.684Z,3.73
2018-08-13T05:19:23.809Z,2.80
2018-08-13T05:21:51.896Z,3.67
2018-08-13T05:24:20.317Z,3.30
2018-08-13T05:26:48.732Z,3.30
2018-08-13T05:29:16.800Z,3.30
2018-08-13T05:31:44.961Z,2.77
2018-08-13T05:34:13.012Z,3.30
2018-08-13T05:36:41.123Z,3.70
2018-08-13T05:39:10.033Z,3.23
2018-08-13T05:41:38.186Z,3.10
2018-08-13T05:44:06.533Z,3.13
2018-08-13T05:46:34.992Z,2.87
2018-08-13T05:49:03.189Z,3.00
2018-08-13T05:51:31.269Z,2.60
2018-08-13T05:53:59.425Z,2.93
2018-08-13T05:56:27.499Z,3.20
2018-08-13T05:58:55.591Z,3.03
2018-08-13T06:01:23.684Z,2.90
2018-08-13T06:03:51.809Z,3.10
2018-08-13T06:06:19.924Z,3.07
2018-08-13T06:08:47.985Z,2.60
2018-08-13T06:11:16.119Z,3.00
2018-08-13T06:13:44.221Z,2.70
2018-08-13T06:16:12.327Z,2.67
2018-08-13T06:18:40.745Z,2.43
2018-08-13T06:21:08.837Z,2.60
2018-08-13T06:23:36.901Z,2.60
2018-08-13T06:26:04.977Z,2.47
2018-08-13T06:28:33.117Z,2.57
2018-08-13T06:31:01.225Z,2.57
2018-08-13T06:33:29.276Z,2.50
2018-08-13T06:35:57.352Z,2.10
2018-08-13T06:38:25.441Z,2.40
2018-08-13T06:40:53.504Z,2.67
2018-08-13T06:43:21.551Z,2.67
2018-08-13T06:45:49.641Z,3.17
2018-08-13T06:48:17.758Z,2.90
2018-08-13T06:50:45.814Z,2.87
2018-08-13T06:53:13.902Z,2.60
2018-08-13T06:55:41.970Z,2.90
2018-08-13T06:58:10.085Z,2.80
2018-08-13T07:00:38.204Z,2.83
2018-08-13T07:03:06.568Z,3.70
2018-08-13T07:05:34.638Z,3.30
2018-08-13T07:08:03.139Z,3.20
2018-08-13T07:10:33.161Z,2.97
2018-08-13T07:13:02.160Z,3.20
2018-08-13T07:15:30.257Z,3.47
2018-08-13T07:17:58.320Z,3.17
2018-08-13T07:20:26.497Z,2.83
2018-08-13T07:22:54.553Z,3.03
2018-08-13T07:25:23.229Z,3.20
2018-08-13T07:27:51.359Z,3.60
2018-08-13T07:30:19.585Z,3.10
2018-08-13T07:32:47.989Z,3.47
2018-08-13T07:35:16.088Z,3.27
2018-08-13T07:37:44.165Z,3.20
2018-08-13T07:40:14.748Z,3.30
2018-08-13T07:42:43.040Z,3.20
2018-08-13T07:45:11.127Z,2.93
2018-08-13T07:47:39.256Z,2.70
2018-08-13T07:50:08.249Z,3.10
2018-08-13T07:52:36.370Z,3.17
2018-08-13T07:55:04.902Z,3.50
2018-08-13T07:57:32.972Z,3.30
2018-08-13T08:00:01.101Z,3.83
2018-08-13T08:02:29.371Z,3.40
2018-08-13T08:04:57.660Z,3.03
2018-08-13T08:07:25.734Z,3.30
2018-08-13T08:09:53.820Z,3.30
2018-08-13T08:12:22.777Z,2.77
2018-08-13T08:14:50.951Z,3.37
2018-08-13T08:17:19.148Z,3.20
2018-08-13T08:19:47.205Z,3.00
2018-08-13T08:22:15.295Z,2.73
2018-08-13T08:24:43.393Z,2.80
2018-08-13T08:27:11.456Z,2.77
2018-08-13T08:29:39.574Z,2.30
2018-08-13T08:32:07.671Z,2.60
2018-08-13T08:34:35.791Z,2.60
2018-08-13T08:37:04.030Z,2.73
2018-08-13T08:39:32.091Z,2.90
2018-08-13T08:42:00.889Z,3.00
2018-08-13T08:44:28.955Z,2.60
2018-08-13T08:46:57.019Z,2.90
2018-08-13T08:49:25.331Z,2.90
2018-08-13T08:51:53.618Z,2.90
2018-08-13T08:54:21.672Z,2.83
2018-08-13T08:56:49.763Z,2.93
2018-08-13T08:59:17.845Z,2.70
2018-08-13T09:01:45.917Z,3.10
2018-08-13T09:04:14.004Z,2.73
2018-08-13T09:06:42.414Z,2.93
2018-08-13T09:09:12.433Z,2.50
2018-08-13T09:11:40.940Z,2.63
2018-08-13T09:14:09.439Z,3.23
2018-08-13T09:16:38.248Z,3.30
2018-08-13T09:19:12.056Z,2.50
2018-08-13T09:21:40.283Z,3.00
2018-08-13T09:24:14.612Z,3.07
2018-08-13T09:26:48.256Z,2.77
2018-08-13T09:29:21.776Z,2.80
2018-08-13T09:31:56.579Z,3.20
2018-08-13T09:34:30.318Z,3.00
2018-08-13T09:36:58.368Z,3.07
2018-08-13T09:39:26.456Z,2.73
2018-08-13T09:41:54.525Z,3.27
2018-08-13T09:44:22.612Z,3.17
2018-08-13T09:46:50.696Z,2.97
2018-08-13T09:49:18.775Z,2.90
2018-08-13T09:51:46.885Z,3.40
2018-08-13T09:54:14.976Z,3.40
2018-08-13T09:56:43.405Z,3.10
2018-08-13T09:59:11.510Z,3.27
2018-08-13T10:01:39.574Z,2.67
2018-08-13T10:04:07.702Z,3.43
2018-08-13T10:06:35.773Z,3.50
2018-08-13T10:09:05.192Z,3.20
2018-08-13T10:11:33.338Z,3.10
2018-08-13T10:14:01.413Z,3.37
2018-08-13T10:16:29.491Z,3.20
2018-08-13T10:18:57.599Z,3.40
2018-08-13T10:21:25.879Z,3.30
2018-08-13T10:23:53.941Z,3.00
2018-08-13T10:26:22.017Z,3.60
2018-08-13T10:28:50.448Z,3.20
2018-08-13T10:31:18.548Z,3.73
2018-08-13T10:33:46.636Z,4.37
2018-08-13T10:36:14.741Z,4.93
2018-08-13T10:38:42.846Z,4.30
2018-08-13T10:41:10.936Z,3.67
2018-08-13T10:43:39.078Z,4.47
2018-08-13T10:46:08.052Z,3.93
2018-08-13T10:48:36.176Z,4.00
2018-08-13T10:51:04.268Z,4.00
2018-08-13T10:53:32.340Z,4.43
2018-08-13T10:56:00.482Z,5.00
2018-08-13T10:58:28.732Z,4.70
2018-08-13T11:00:56.848Z,5.00
2018-08-13T11:03:24.939Z,4.60
2018-08-13T11:05:53.030Z,4.57
2018-08-13T11:08:21.116Z,4.27
2018-08-13T11:10:49.206Z,4.20
2018-08-13T11:13:17.278Z,4.30
2018-08-13T11:15:45.377Z,3.80
2018-08-13T11:18:13.803Z,3.87
2018-08-13T11:20:41.874Z,4.03
2018-08-13T11:23:10.327Z,3.80
2018-08-13T11:25:38.781Z,3.40
2018-08-13T11:28:06.888Z,3.70
2018-08-13T11:30:35.335Z,3.97
2018-08-13T11:33:03.426Z,2.93
2018-08-13T11:35:31.533Z,3.10
2018-08-13T11:37:59.946Z,3.30
2018-08-13T11:40:28.031Z,3.27
2018-08-13T11:42:56.141Z,3.73
2018-08-13T11:45:24.592Z,3.50
2018-08-13T11:47:52.703Z,3.30
2018-08-13T11:50:20.897Z,3.00
2018-08-13T11:52:50.166Z,3.57
2018-08-13T11:55:18.911Z,3.47
2018-08-13T11:57:48.109Z,2.90
2018-08-13T12:00:16.212Z,3.00
2018-08-13T12:02:44.427Z,3.30
2018-08-13T12:05:13.672Z,2.87
2018-08-13T12:07:42.145Z,2.90
2018-08-13T12:10:11.005Z,3.80
2018-08-13T12:12:39.902Z,3.43
2018-08-13T12:15:08.796Z,3.70
2018-08-13T12:17:36.885Z,3.37
2018-08-13T12:20:06.366Z,2.87
2018-08-13T12:22:34.801Z,3.40
2018-08-13T12:25:02.901Z,3.47
2018-08-13T12:27:30.969Z,3.40
2018-08-13T12:29:59.069Z,3.30
2018-08-13T12:32:27.212Z,2.97
2018-08-13T12:34:55.303Z,3.20
2018-08-13T12:37:23.381Z,3.30
2018-08-13T12:39:51.453Z,3.30
2018-08-13T12:42:19.488Z,3.03
2018-08-13T12:44:47.549Z,3.77
2018-08-13T12:47:15.669Z,3.03
2018-08-13T12:49:43.759Z,3.00
2018-08-13T12:52:12.549Z,2.93
2018-08-13T12:54:40.632Z,3.43
2018-08-13T12:57:08.810Z,3.50
2018-08-13T12:59:37.029Z,4.30
2018-08-13T13:02:05.449Z,3.23
2018-08-13T13:04:33.517Z,3.33
2018-08-13T13:07:01.706Z,2.97
2018-08-13T13:09:29.830Z,3.50
2018-08-13T13:11:57.951Z,3.37
2018-08-13T13:14:26.048Z,2.90
2018-08-13T13:16:54.323Z,2.90
2018-08-13T13:19:22.837Z,2.60
2018-08-13T13:21:51.005Z,2.90
2018-08-13T13:24:19.077Z,2.80
2018-08-13T13:26:47.182Z,2.80
2018-08-13T13:29:15.670Z,2.60
2018-08-13T13:31:43.765Z,2.50
2018-08-13T13:34:12.213Z,2.40
2018-08-13T13:36:40.291Z,2.10
2018-08-13T13:39:08.989Z,2.70
2018-08-13T13:41:37.086Z,2.60
2018-08-13T13:44:05.325Z,2.47
2018-08-13T13:46:33.424Z,2.80
2018-08-13T13:49:01.550Z,2.60
2018-08-13T13:51:29.957Z,2.50
2018-08-13T13:53:58.240Z,2.57
2018-08-13T13:56:26.339Z,2.90
2018-08-13T13:58:54.634Z,2.70
2018-08-13T14:01:22.701Z,2.60
2018-08-13T14:03:50.793Z,2.60
2018-08-13T14:06:18.942Z,2.67
2018-08-13T14:08:47.200Z,2.60
2018-08-13T14:11:15.291Z,2.20
2018-08-13T14:13:43.386Z,3.70
2018-08-13T14:16:11.531Z,2.83
2018-08-13T14:18:39.610Z,2.67
2018-08-13T14:21:07.712Z,2.60
2018-08-13T14:23:35.818Z,2.90
2018-08-13T14:26:04.068Z,3.03
2018-08-13T14:28:32.252Z,2.80
2018-08-13T14:31:00.384Z,3.40
2018-08-13T14:33:28.481Z,2.60
2018-08-13T14:35:56.910Z,2.63
2018-08-13T14:38:25.008Z,2.83
2018-08-13T14:40:53.105Z,2.87
2018-08-13T14:43:21.301Z,2.83
2018-08-13T14:45:49.404Z,3.10
2018-08-13T14:48:17.879Z,3.27
2018-08-13T14:50:46.049Z,2.03
2018-08-13T14:53:14.205Z,1.80
2018-08-13T14:55:42.711Z,1.40
2018-08-13T14:58:12.201Z,3.10
2018-08-13T15:00:40.689Z,2.07
2018-08-13T15:03:12.389Z,1.90
2018-08-13T15:05:41.187Z,3.17
2018-08-13T15:08:09.635Z,3.60
2018-08-13T15:10:37.765Z,4.10
2018-08-13T15:13:05.870Z,3.80
2018-08-13T15:15:34.234Z,4.10
2018-08-13T15:18:02.412Z,3.50
2018-08-13T15:20:31.549Z,3.80
2018-08-13T15:22:59.668Z,4.00
2018-08-13T15:25:28.445Z,3.90
2018-08-13T15:27:56.716Z,3.73
2018-08-13T15:30:25.686Z,3.80
2018-08-13T15:32:54.186Z,3.73
2018-08-13T15:35:22.348Z,3.93
2018-08-13T15:37:51.024Z,4.33
2018-08-13T15:40:19.634Z,3.73
2018-08-13T15:42:47.874Z,3.67
2018-08-13T15:45:18.496Z,3.30
2018-08-13T15:47:47.005Z,3.80
2018-08-13T15:50:16.487Z,3.50
2018-08-13T15:52:45.808Z,2.80
2018-08-13T15:55:14.108Z,2.90
2018-08-13T15:57:43.214Z,3.50
2018-08-13T16:00:13.516Z,3.20
2018-08-13T16:02:41.629Z,3.50
2018-08-13T16:05:10.112Z,4.80
2018-08-13T16:07:38.213Z,3.50
2018-08-13T16:10:07.204Z,4.50
2018-08-13T16:12:35.352Z,3.93
2018-08-13T16:15:03.493Z,4.10
2018-08-13T16:17:31.583Z,4.30
2018-08-13T16:19:59.784Z,4.30
2018-08-13T16:22:27.897Z,3.90
2018-08-13T16:24:55.969Z,4.00
2018-08-13T16:27:24.074Z,3.70
2018-08-13T16:29:52.173Z,4.13
2018-08-13T16:32:20.247Z,4.20
2018-08-13T16:34:48.333Z,4.00
2018-08-13T16:37:16.489Z,4.27
2018-08-13T16:39:44.576Z,4.13
2018-08-13T16:42:12.748Z,3.83
2018-08-13T16:44:40.984Z,3.57
2018-08-13T16:47:09.116Z,3.90
2018-08-13T16:49:37.253Z,4.23
2018-08-13T16:52:05.323Z,2.93
2018-08-13T16:54:33.586Z,3.30
2018-08-13T16:57:02.153Z,2.77
2018-08-13T16:59:30.246Z,2.40
2018-08-13T17:01:58.482Z,2.97
2018-08-13T17:04:26.597Z,2.40
2018-08-13T17:06:54.693Z,2.47
2018-08-13T17:09:22.851Z,2.30
2018-08-13T17:11:50.911Z,2.50
2018-08-13T17:14:19.652Z,3.90
2018-08-13T17:16:47.908Z,2.17
2018-08-13T17:19:16.368Z,2.60
2018-08-13T17:21:44.500Z,1.60
2018-08-13T17:24:13.643Z,1.97
2018-08-13T17:26:42.231Z,1.87
2018-08-13T17:29:10.316Z,1.90
2018-08-13T17:31:38.893Z,1.77
2018-08-13T17:34:07.484Z,2.03
2018-08-13T17:36:35.676Z,2.00
2018-08-13T17:39:05.623Z,1.90
2018-08-13T17:41:34.624Z,1.80
2018-08-13T17:44:02.780Z,1.77
2018-08-13T17:46:30.864Z,1.80
2018-08-13T17:48:59.393Z,1.90
2018-08-13T17:51:27.523Z,2.10
2018-08-13T17:53:55.688Z,2.40
2018-08-13T17:56:24.264Z,2.30
2018-08-13T17:58:52.598Z,2.17
2018-08-13T18:01:21.097Z,3.00
2018-08-13T18:03:49.169Z,3.60
2018-08-13T18:06:17.402Z,3.40
2018-08-13T18:08:45.501Z,2.77
2018-08-13T18:11:13.921Z,3.00
2018-08-13T18:13:42.045Z,2.73
2018-08-13T18:16:10.937Z,3.00
2018-08-13T18:18:39.032Z,3.10
2018-08-13T18:21:07.154Z,2.50
2018-08-13T18:23:35.417Z,2.23
2018-08-13T18:26:03.639Z,2.80
2018-08-13T18:28:31.727Z,2.70
2018-08-13T18:30:59.797Z,2.97
2018-08-13T18:33:27.915Z,2.17
2018-08-13T18:35:56.426Z,2.77
2018-08-13T18:38:24.705Z,2.50
2018-08-13T18:40:52.956Z,2.93
2018-08-13T18:43:21.055Z,2.83
2018-08-13T18:45:49.141Z,2.77
2018-08-13T18:48:17.236Z,2.50
2018-08-13T18:50:45.769Z,2.50
2018-08-13T18:53:13.892Z,2.50
2018-08-13T18:55:42.173Z,2.60
2018-08-13T18:58:10.418Z,2.53
2018-08-13T19:00:38.632Z,3.63
2018-08-13T19:03:06.864Z,2.43
2018-08-13T19:05:35.083Z,2.27
2018-08-13T19:08:03.312Z,2.27
2018-08-13T19:10:31.420Z,2.63
2018-08-13T19:12:59.854Z,2.73
2018-08-13T19:15:28.629Z,2.47
2018-08-13T19:17:56.716Z,2.37
2018-08-13T19:20:24.892Z,2.80
2018-08-13T19:22:52.991Z,2.20
2018-08-13T19:25:22.290Z,2.57
2018-08-13T19:27:50.902Z,2.47
2018-08-13T19:30:20.097Z,2.70
2018-08-13T19:32:49.090Z,2.50
2018-08-13T19:35:17.578Z,2.83
2018-08-13T19:37:46.197Z,3.17
2018-08-13T19:40:16.189Z,3.13
2018-08-13T19:42:45.212Z,2.77
2018-08-13T19:45:14.828Z,2.83
2018-08-13T19:47:43.272Z,3.30
2018-08-13T19:50:11.823Z,2.80
2018-08-13T19:52:41.828Z,3.57
2018-08-13T19:55:10.363Z,3.07
2018-08-13T19:57:39.144Z,3.13
2018-08-13T20:00:09.910Z,3.10
2018-08-13T20:02:38.373Z,3.27
2018-08-13T20:05:07.028Z,3.10
2018-08-13T20:07:35.506Z,3.40
2018-08-13T20:10:04.284Z,3.00
2018-08-13T20:12:32.777Z,3.10
2018-08-13T20:15:01.234Z,3.50
2018-08-13T20:17:29.423Z,3.50
2018-08-13T20:19:57.900Z,3.77
2018-08-13T20:22:26.028Z,3.30
2018-08-13T20:24:54.139Z,4.23
2018-08-13T20:27:22.208Z,3.50
2018-08-13T20:29:50.665Z,3.37
2018-08-13T20:32:18.758Z,3.93
2018-08-13T20:34:46.861Z,3.70
2018-08-13T20:37:15.018Z,4.57
2018-08-13T20:39:43.229Z,3.60
2018-08-13T20:42:11.388Z,3.43
2018-08-13T20:44:39.817Z,3.53
2018-08-13T20:47:08.021Z,3.60
2018-08-13T20:49:36.435Z,3.67
2018-08-13T20:52:04.893Z,3.60
2018-08-13T20:54:33.324Z,3.90
2018-08-13T20:57:01.710Z,3.67
2018-08-13T20:59:30.141Z,3.37
2018-08-13T21:01:58.288Z,3.73
2018-08-13T21:04:26.692Z,3.83
2018-08-13T21:06:54.777Z,3.50
2018-08-13T21:09:23.295Z,3.63
2018-08-13T21:11:51.409Z,3.50
2018-08-13T21:14:19.529Z,3.73
2018-08-13T21:16:47.612Z,3.37
2018-08-13T21:19:15.724Z,3.03
2018-08-13T21:21:43.928Z,3.43
2018-08-13T21:24:12.077Z,3.07
2018-08-13T21:26:40.287Z,3.30
2018-08-13T21:29:08.586Z,3.30
2018-08-13T21:31:36.705Z,3.23
2018-08-13T21:34:04.792Z,3.03
2018-08-13T21:36:32.962Z,3.00
2018-08-13T21:39:01.413Z,2.87
2018-08-13T21:41:29.496Z,2.87
2018-08-13T21:43:57.578Z,3.27
2018-08-13T21:46:25.678Z,2.93
2018-08-13T21:48:53.926Z,3.10
2018-08-13T21:51:21.975Z,3.13
2018-08-13T21:53:50.189Z,2.90
2018-08-13T21:56:18.376Z,3.10
2018-08-13T21:58:46.443Z,3.00
2018-08-13T22:01:20.233Z,3.43
2018-08-13T22:03:48.300Z,2.97
2018-08-13T22:06:16.417Z,3.07
2018-08-13T22:08:44.684Z,2.57
2018-08-13T22:11:12.836Z,3.10
2018-08-13T22:13:41.009Z,2.73
2018-08-13T22:16:09.180Z,3.00
2018-08-13T22:18:37.261Z,3.17
2018-08-13T22:21:05.830Z,2.93
2018-08-13T22:23:33.928Z,3.10
2018-08-13T22:26:02.060Z,2.90
2018-08-13T22:28:30.248Z,2.97
2018-08-13T22:30:58.300Z,3.60
2018-08-13T22:33:26.752Z,2.80
2018-08-13T22:35:54.818Z,3.20
2018-08-13T22:38:22.876Z,3.03
2018-08-13T22:40:51.054Z,2.80
2018-08-13T22:43:19.121Z,3.60
2018-08-13T22:45:47.304Z,2.93
2018-08-13T22:48:15.407Z,3.10
2018-08-13T22:50:43.461Z,3.67
2018-08-13T22:53:11.539Z,3.23
2018-08-13T22:55:39.612Z,2.60
2018-08-13T22:58:08.088Z,2.80
2018-08-13T23:00:36.167Z,2.80
2018-08-13T23:03:04.855Z,3.07
2018-08-13T23:05:32.988Z,3.27
2018-08-13T23:08:01.083Z,2.67
2018-08-13T23:10:29.327Z,3.10
2018-08-13T23:12:57.811Z,2.80
2018-08-13T23:15:26.080Z,2.43
2018-08-13T23:17:54.311Z,3.00
2018-08-13T23:20:23.549Z,2.80
2018-08-13T23:22:58.784Z,2.80
2018-08-13T23:25:27.449Z,3.17
2018-08-13T23:27:56.777Z,3.20
2018-08-13T23:30:24.844Z,2.73
2018-08-13T23:32:54.236Z,2.97
2018-08-13T23:35:23.153Z,3.53
2018-08-13T23:37:51.708Z,3.27
2018-08-13T23:40:19.761Z,3.00
2018-08-13T23:42:48.168Z,2.90
2018-08-13T23:45:18.899Z,3.40
2018-08-13T23:47:47.236Z,3.07
2018-08-13T23:50:17.608Z,3.30
2018-08-13T23:52:46.560Z,3.40
2018-08-13T23:55:19.843Z,3.40
2018-08-13T23:57:47.972Z,3.40
